Marian S Heiskell — WDD7538 — position and weather

sailwx.info

Track history (hours):
 
Tides and Currents Weather Stations Pressure Air Temp Water Temp Dewpoint Dewpoint Depression Visibility Wind Speed Wind Dir Waves Ship Positions

Marian S Heiskell

Owner: NYCL Acquisition LLC, Brooklyn, NY. More information available from US FCC via Universal Licensing System and Coast Guard Vessel Documentation Center.

Last reported at 2018-Jan-21 02:31 UTC. Time now 2018-Jan-21 04:58 UTC.
Position N 40°40' W 074°01'.

Length 20 m.

Type: Passenger vessel. MMSI: 367187770.

Date/timePositionNaut miles runAvg speedWind from/ knotsBaromVisibWave heightAir tempDewpointWater temp
2018-Jan-21 02:31N 40°40' W 074°01'015.1
2018-Jan-21 02:30N 40°41' W 074°01'1 1.0
2018-Jan-21 02:00N 40°40' W 074°01'0 0.8
2018-Jan-21 01:29N 40°40' W 074°01'1 1.3
2018-Jan-21 01:00N 40°41' W 074°01'1 1.5
2018-Jan-21 00:30N 40°40' W 074°01'1 1.7
2018-Jan-20 23:52N 40°41' W 074°01'1 2.3
2018-Jan-20 23:24N 40°40' W 074°01'0 0.6
2018-Jan-20 22:56N 40°40' W 074°01'1 3.0
2018-Jan-20 22:27N 40°42' W 074°00'1 3.0
2018-Jan-20 21:58N 40°40' W 074°01'2 3.6
2018-Jan-20 21:24N 40°42' W 074°00'2 4.5
2018-Jan-20 20:58N 40°40' W 074°01'1 1.2
2018-Jan-20 20:28N 40°41' W 074°01'1 1.2
2018-Jan-20 20:00N 40°41' W 074°01'1 1.4
2018-Jan-20 19:29N 40°40' W 074°01'2 3.0
2018-Jan-20 18:55N 40°42' W 074°00'2 4.1
2018-Jan-20 18:30N 40°40' W 074°01'1 3.0
2018-Jan-20 18:00N 40°42' W 074°00'1 2.4
2018-Jan-20 17:30N 40°41' W 074°01'1 1.1
2018-Jan-20 17:00N 40°40' W 074°01'0 0.0
2018-Jan-20 01:16N 40°40' W 074°01'517.6
2018-Jan-20 01:00N 40°45' W 073°58'611.0
2018-Jan-20 00:25N 40°39' W 074°02'612.3
2018-Jan-19 23:55N 40°44' W 073°58'615.0
2018-Jan-19 23:30N 40°39' W 074°02'611.5
2018-Jan-19 22:58N 40°44' W 073°58'613.0
2018-Jan-19 22:29N 40°39' W 074°02'5 8.9
2018-Jan-19 21:52N 40°44' W 073°58'514.9
2018-Jan-19 21:30N 40°39' W 074°02'5 7.3
2018-Jan-19 20:50N 40°43' W 073°58'514.1
2018-Jan-19 20:29N 40°39' W 074°02'6 9.8
2018-Jan-19 19:55N 40°44' W 073°58'612.5
2018-Jan-19 19:28N 40°39' W 074°02'611.7
2018-Jan-19 18:56N 40°44' W 073°58'614.2
2018-Jan-19 18:30N 40°39' W 074°02'610.3
2018-Jan-19 17:54N 40°44' W 073°58'615.0
2018-Jan-19 17:29N 40°39' W 074°02'6 9.2
2018-Jan-19 16:51N 40°44' W 073°58'616.6
2018-Jan-19 16:30N 40°39' W 074°02'610.2
2018-Jan-19 15:54N 40°44' W 073°58'615.5
2018-Jan-19 15:29N 40°39' W 074°02'6 9.7
2018-Jan-19 14:51N 40°44' W 073°58'617.3
2018-Jan-19 14:29N 40°39' W 074°02'613.1
2018-Jan-19 14:00N 40°45' W 073°58'612.1
2018-Jan-19 13:29N 40°39' W 074°02'613.1
2018-Jan-19 13:00N 40°45' W 073°58'612.4
2018-Jan-19 12:29N 40°39' W 074°02'6 9.7
2018-Jan-19 11:52N 40°44' W 073°58'616.5
2018-Jan-19 11:30N 40°39' W 074°02'610.2
2018-Jan-19 10:54N 40°44' W 073°58'6 9.1
2018-Jan-19 10:14N 40°39' W 074°02'1 6.1
2018-Jan-19 10:00N 40°40' W 074°01'0 0.0
2018-Jan-18 22:00N 40°40' W 074°01'2 4.2
2018-Jan-18 21:29N 40°42' W 074°00'1 2.6
2018-Jan-18 21:00N 40°43' W 074°02'1 2.5
2018-Jan-18 20:30N 40°42' W 074°00'0 0.0
2018-Jan-18 20:00N 40°42' W 074°00'1 2.5
2018-Jan-18 19:30N 40°43' W 074°02'1 2.4
2018-Jan-18 18:59N 40°42' W 074°00'0 0.0
2018-Jan-18 18:30N 40°42' W 074°00'0 0.3
2018-Jan-18 17:59N 40°42' W 073°60'0 0.3
2018-Jan-18 17:30N 40°42' W 074°00'0 0.0
2018-Jan-18 17:00N 40°42' W 074°00'1 2.5
2018-Jan-18 16:30N 40°43' W 074°02'1 2.5
2018-Jan-18 16:00N 40°42' W 074°00'  
Track history (hours):
 
Tides and Currents Weather Stations Pressure Air Temp Water Temp Dewpoint Dewpoint Depression Visibility Wind Speed Wind Dir Waves Ship Positions

Marian S Heiskell

Owner: NYCL Acquisition LLC, Brooklyn, NY. More information available from US FCC via Universal Licensing System and Coast Guard Vessel Documentation Center.

Last reported at 2018-Jan-21 02:31 UTC. Time now 2018-Jan-21 04:58 UTC.
Position N 40°40' W 074°01'.

Length 20 m.

Type: Passenger vessel. MMSI: 367187770.

Date/timePositionNaut miles runAvg speedWind from/ knotsBaromVisibWave heightAir tempDewpointWater temp
2018-Jan-21 02:31N 40°40' W 074°01'015.1
2018-Jan-21 02:30N 40°41' W 074°01'1 1.0
2018-Jan-21 02:00N 40°40' W 074°01'0 0.8
2018-Jan-21 01:29N 40°40' W 074°01'1 1.3
2018-Jan-21 01:00N 40°41' W 074°01'1 1.5
2018-Jan-21 00:30N 40°40' W 074°01'1 1.7
2018-Jan-20 23:52N 40°41' W 074°01'1 2.3
2018-Jan-20 23:24N 40°40' W 074°01'0 0.6
2018-Jan-20 22:56N 40°40' W 074°01'1 3.0
2018-Jan-20 22:27N 40°42' W 074°00'1 3.0
2018-Jan-20 21:58N 40°40' W 074°01'2 3.6
2018-Jan-20 21:24N 40°42' W 074°00'2 4.5
2018-Jan-20 20:58N 40°40' W 074°01'1 1.2
2018-Jan-20 20:28N 40°41' W 074°01'1 1.2
2018-Jan-20 20:00N 40°41' W 074°01'1 1.4
2018-Jan-20 19:29N 40°40' W 074°01'2 3.0
2018-Jan-20 18:55N 40°42' W 074°00'2 4.1
2018-Jan-20 18:30N 40°40' W 074°01'1 3.0
2018-Jan-20 18:00N 40°42' W 074°00'1 2.4
2018-Jan-20 17:30N 40°41' W 074°01'1 1.1
2018-Jan-20 17:00N 40°40' W 074°01'0 0.0
2018-Jan-20 01:16N 40°40' W 074°01'517.6
2018-Jan-20 01:00N 40°45' W 073°58'611.0
2018-Jan-20 00:25N 40°39' W 074°02'612.3
2018-Jan-19 23:55N 40°44' W 073°58'615.0
2018-Jan-19 23:30N 40°39' W 074°02'611.5
2018-Jan-19 22:58N 40°44' W 073°58'613.0
2018-Jan-19 22:29N 40°39' W 074°02'5 8.9
2018-Jan-19 21:52N 40°44' W 073°58'514.9
2018-Jan-19 21:30N 40°39' W 074°02'5 7.3
2018-Jan-19 20:50N 40°43' W 073°58'514.1
2018-Jan-19 20:29N 40°39' W 074°02'6 9.8
2018-Jan-19 19:55N 40°44' W 073°58'612.5
2018-Jan-19 19:28N 40°39' W 074°02'611.7
2018-Jan-19 18:56N 40°44' W 073°58'614.2
2018-Jan-19 18:30N 40°39' W 074°02'610.3
2018-Jan-19 17:54N 40°44' W 073°58'615.0
2018-Jan-19 17:29N 40°39' W 074°02'6 9.2
2018-Jan-19 16:51N 40°44' W 073°58'616.6
2018-Jan-19 16:30N 40°39' W 074°02'610.2
2018-Jan-19 15:54N 40°44' W 073°58'615.5
2018-Jan-19 15:29N 40°39' W 074°02'6 9.7
2018-Jan-19 14:51N 40°44' W 073°58'617.3
2018-Jan-19 14:29N 40°39' W 074°02'613.1
2018-Jan-19 14:00N 40°45' W 073°58'612.1
2018-Jan-19 13:29N 40°39' W 074°02'613.1
2018-Jan-19 13:00N 40°45' W 073°58'612.4
2018-Jan-19 12:29N 40°39' W 074°02'6 9.7
2018-Jan-19 11:52N 40°44' W 073°58'616.5
2018-Jan-19 11:30N 40°39' W 074°02'610.2
2018-Jan-19 10:54N 40°44' W 073°58'6 9.1
2018-Jan-19 10:14N 40°39' W 074°02'1 6.1
2018-Jan-19 10:00N 40°40' W 074°01'0 0.0
2018-Jan-18 22:00N 40°40' W 074°01'2 4.2
2018-Jan-18 21:29N 40°42' W 074°00'1 2.6
2018-Jan-18 21:00N 40°43' W 074°02'1 2.5
2018-Jan-18 20:30N 40°42' W 074°00'0 0.0
2018-Jan-18 20:00N 40°42' W 074°00'1 2.5
2018-Jan-18 19:30N 40°43' W 074°02'1 2.4
2018-Jan-18 18:59N 40°42' W 074°00'0 0.0
2018-Jan-18 18:30N 40°42' W 074°00'0 0.3
2018-Jan-18 17:59N 40°42' W 073°60'0 0.3
2018-Jan-18 17:30N 40°42' W 074°00'0 0.0
2018-Jan-18 17:00N 40°42' W 074°00'1 2.5
2018-Jan-18 16:30N 40°43' W 074°02'1 2.5
2018-Jan-18 16:00N 40°42' W 074°00'  

Dump ship's entire track history